sensor_id;sensor_type;location;lat;lon;timestamp;P1;durP1;ratioP1;P2;durP2;ratioP2
6205;SDS011;3136;48.788;9.772;2024-01-07T00:01:15;15.87;;;10.70;;
6205;SDS011;3136;48.788;9.772;2024-01-07T00:03:40;14.80;;;10.93;;
6205;SDS011;3136;48.788;9.772;2024-01-07T00:06:07;18.33;;;11.20;;
6205;SDS011;3136;48.788;9.772;2024-01-07T00:08:33;16.30;;;11.70;;
6205;SDS011;3136;48.788;9.772;2024-01-07T00:10:59;17.67;;;11.93;;
6205;SDS011;3136;48.788;9.772;2024-01-07T00:13:25;17.57;;;11.63;;
6205;SDS011;3136;48.788;9.772;2024-01-07T00:15:50;18.97;;;12.37;;
6205;SDS011;3136;48.788;9.772;2024-01-07T00:18:18;19.40;;;12.17;;
6205;SDS011;3136;48.788;9.772;2024-01-07T00:20:44;17.10;;;11.80;;
6205;SDS011;3136;48.788;9.772;2024-01-07T00:23:10;21.13;;;12.70;;
6205;SDS011;3136;48.788;9.772;2024-01-07T00:25:35;19.47;;;12.00;;
6205;SDS011;3136;48.788;9.772;2024-01-07T00:28:01;20.40;;;12.63;;
6205;SDS011;3136;48.788;9.772;2024-01-07T00:30:26;18.03;;;11.67;;
6205;SDS011;3136;48.788;9.772;2024-01-07T00:32:52;17.30;;;12.27;;
6205;SDS011;3136;48.788;9.772;2024-01-07T00:35:17;17.33;;;12.40;;
6205;SDS011;3136;48.788;9.772;2024-01-07T00:37:43;17.27;;;12.10;;
6205;SDS011;3136;48.788;9.772;2024-01-07T00:40:09;17.97;;;10.93;;
6205;SDS011;3136;48.788;9.772;2024-01-07T00:42:35;18.90;;;11.67;;
6205;SDS011;3136;48.788;9.772;2024-01-07T00:45:00;21.37;;;11.80;;
6205;SDS011;3136;48.788;9.772;2024-01-07T00:47:26;18.67;;;11.47;;
6205;SDS011;3136;48.788;9.772;2024-01-07T00:49:52;18.03;;;11.90;;
6205;SDS011;3136;48.788;9.772;2024-01-07T00:52:18;19.17;;;12.50;;
6205;SDS011;3136;48.788;9.772;2024-01-07T00:54:43;18.77;;;11.60;;
6205;SDS011;3136;48.788;9.772;2024-01-07T00:57:10;18.17;;;12.10;;
6205;SDS011;3136;48.788;9.772;2024-01-07T00:59:37;16.70;;;11.10;;
6205;SDS011;3136;48.788;9.772;2024-01-07T01:02:03;16.47;;;11.47;;
6205;SDS011;3136;48.788;9.772;2024-01-07T01:04:28;16.73;;;12.03;;
6205;SDS011;3136;48.788;9.772;2024-01-07T01:06:54;18.00;;;11.83;;
6205;SDS011;3136;48.788;9.772;2024-01-07T01:09:19;19.23;;;12.27;;
6205;SDS011;3136;48.788;9.772;2024-01-07T01:11:45;16.67;;;11.73;;
6205;SDS011;3136;48.788;9.772;2024-01-07T01:14:11;19.60;;;12.40;;
6205;SDS011;3136;48.788;9.772;2024-01-07T01:16:36;20.13;;;12.17;;
6205;SDS011;3136;48.788;9.772;2024-01-07T01:19:02;16.67;;;12.40;;
6205;SDS011;3136;48.788;9.772;2024-01-07T01:21:27;22.87;;;12.50;;
6205;SDS011;3136;48.788;9.772;2024-01-07T01:23:53;19.13;;;12.07;;
6205;SDS011;3136;48.788;9.772;2024-01-07T01:26:19;18.33;;;11.70;;
6205;SDS011;3136;48.788;9.772;2024-01-07T01:28:45;18.87;;;12.30;;
6205;SDS011;3136;48.788;9.772;2024-01-07T01:31:13;18.03;;;12.43;;
6205;SDS011;3136;48.788;9.772;2024-01-07T01:33:39;18.50;;;12.20;;
6205;SDS011;3136;48.788;9.772;2024-01-07T01:36:05;19.00;;;12.27;;
6205;SDS011;3136;48.788;9.772;2024-01-07T01:38:31;20.47;;;12.47;;
6205;SDS011;3136;48.788;9.772;2024-01-07T01:40:57;15.97;;;11.07;;
6205;SDS011;3136;48.788;9.772;2024-01-07T01:43:23;18.63;;;12.20;;
6205;SDS011;3136;48.788;9.772;2024-01-07T01:45:53;18.47;;;12.10;;
6205;SDS011;3136;48.788;9.772;2024-01-07T01:48:20;20.07;;;12.20;;
6205;SDS011;3136;48.788;9.772;2024-01-07T01:50:47;23.07;;;12.17;;
6205;SDS011;3136;48.788;9.772;2024-01-07T01:53:13;19.23;;;12.33;;
6205;SDS011;3136;48.788;9.772;2024-01-07T01:55:40;21.53;;;12.80;;
6205;SDS011;3136;48.788;9.772;2024-01-07T01:58:06;17.60;;;12.30;;
6205;SDS011;3136;48.788;9.772;2024-01-07T02:00:34;23.30;;;13.50;;
6205;SDS011;3136;48.788;9.772;2024-01-07T02:02:59;19.70;;;13.33;;
6205;SDS011;3136;48.788;9.772;2024-01-07T02:05:26;17.53;;;12.20;;
6205;SDS011;3136;48.788;9.772;2024-01-07T02:07:52;20.67;;;12.53;;
6205;SDS011;3136;48.788;9.772;2024-01-07T02:10:21;19.53;;;12.40;;
6205;SDS011;3136;48.788;9.772;2024-01-07T02:12:47;22.03;;;12.63;;
6205;SDS011;3136;48.788;9.772;2024-01-07T02:15:13;18.27;;;11.97;;
6205;SDS011;3136;48.788;9.772;2024-01-07T02:17:39;19.93;;;11.63;;
6205;SDS011;3136;48.788;9.772;2024-01-07T02:20:05;20.80;;;12.23;;
6205;SDS011;3136;48.788;9.772;2024-01-07T02:22:31;18.07;;;12.37;;
6205;SDS011;3136;48.788;9.772;2024-01-07T02:24:56;20.53;;;12.27;;
6205;SDS011;3136;48.788;9.772;2024-01-07T02:27:22;19.90;;;12.10;;
6205;SDS011;3136;48.788;9.772;2024-01-07T02:29:47;20.83;;;12.70;;
6205;SDS011;3136;48.788;9.772;2024-01-07T02:32:13;20.73;;;12.80;;
6205;SDS011;3136;48.788;9.772;2024-01-07T02:34:38;23.40;;;12.50;;
6205;SDS011;3136;48.788;9.772;2024-01-07T02:37:04;19.63;;;12.23;;
6205;SDS011;3136;48.788;9.772;2024-01-07T02:39:29;23.33;;;13.27;;
6205;SDS011;3136;48.788;9.772;2024-01-07T02:41:55;20.90;;;12.63;;
6205;SDS011;3136;48.788;9.772;2024-01-07T02:44:21;17.77;;;11.70;;
6205;SDS011;3136;48.788;9.772;2024-01-07T02:46:46;19.90;;;12.47;;
6205;SDS011;3136;48.788;9.772;2024-01-07T02:49:12;18.43;;;12.17;;
6205;SDS011;3136;48.788;9.772;2024-01-07T02:51:38;19.53;;;12.50;;
6205;SDS011;3136;48.788;9.772;2024-01-07T02:54:04;21.90;;;12.77;;
6205;SDS011;3136;48.788;9.772;2024-01-07T02:56:29;18.37;;;12.00;;
6205;SDS011;3136;48.788;9.772;2024-01-07T02:58:55;24.20;;;12.47;;
6205;SDS011;3136;48.788;9.772;2024-01-07T03:01:23;22.37;;;12.70;;
6205;SDS011;3136;48.788;9.772;2024-01-07T03:03:49;20.83;;;12.07;;
6205;SDS011;3136;48.788;9.772;2024-01-07T03:06:15;24.87;;;14.53;;
6205;SDS011;3136;48.788;9.772;2024-01-07T03:08:41;22.83;;;14.47;;
6205;SDS011;3136;48.788;9.772;2024-01-07T03:11:08;22.00;;;13.77;;
6205;SDS011;3136;48.788;9.772;2024-01-07T03:13:33;20.47;;;13.30;;
6205;SDS011;3136;48.788;9.772;2024-01-07T03:15:59;22.77;;;14.10;;
6205;SDS011;3136;48.788;9.772;2024-01-07T03:18:24;22.63;;;13.80;;
6205;SDS011;3136;48.788;9.772;2024-01-07T03:20:51;20.80;;;13.90;;
6205;SDS011;3136;48.788;9.772;2024-01-07T03:23:17;20.93;;;14.37;;
6205;SDS011;3136;48.788;9.772;2024-01-07T03:25:43;22.60;;;14.50;;
6205;SDS011;3136;48.788;9.772;2024-01-07T03:28:09;22.10;;;14.23;;
6205;SDS011;3136;48.788;9.772;2024-01-07T03:30:34;21.07;;;13.40;;
6205;SDS011;3136;48.788;9.772;2024-01-07T03:33:00;19.43;;;14.17;;
6205;SDS011;3136;48.788;9.772;2024-01-07T03:35:27;18.87;;;13.47;;
6205;SDS011;3136;48.788;9.772;2024-01-07T03:37:52;20.30;;;13.73;;
6205;SDS011;3136;48.788;9.772;2024-01-07T03:40:18;20.93;;;13.93;;
6205;SDS011;3136;48.788;9.772;2024-01-07T03:42:44;20.90;;;13.80;;
6205;SDS011;3136;48.788;9.772;2024-01-07T03:45:09;19.10;;;14.17;;
6205;SDS011;3136;48.788;9.772;2024-01-07T03:47:35;20.30;;;13.47;;
6205;SDS011;3136;48.788;9.772;2024-01-07T03:50:00;20.67;;;13.60;;
6205;SDS011;3136;48.788;9.772;2024-01-07T03:52:26;20.20;;;13.77;;
6205;SDS011;3136;48.788;9.772;2024-01-07T03:54:53;19.23;;;13.20;;
6205;SDS011;3136;48.788;9.772;2024-01-07T03:57:19;18.40;;;12.80;;
6205;SDS011;3136;48.788;9.772;2024-01-07T03:59:44;20.10;;;13.40;;
6205;SDS011;3136;48.788;9.772;2024-01-07T04:02:10;25.53;;;13.60;;
6205;SDS011;3136;48.788;9.772;2024-01-07T04:04:36;18.63;;;12.37;;
6205;SDS011;3136;48.788;9.772;2024-01-07T04:07:02;18.77;;;13.57;;
6205;SDS011;3136;48.788;9.772;2024-01-07T04:09:28;17.00;;;12.33;;
6205;SDS011;3136;48.788;9.772;2024-01-07T04:11:53;16.97;;;12.67;;
6205;SDS011;3136;48.788;9.772;2024-01-07T04:14:19;18.60;;;12.80;;
6205;SDS011;3136;48.788;9.772;2024-01-07T04:16:44;17.73;;;12.10;;
6205;SDS011;3136;48.788;9.772;2024-01-07T04:19:10;17.57;;;12.23;;
6205;SDS011;3136;48.788;9.772;2024-01-07T04:21:35;18.60;;;12.23;;
6205;SDS011;3136;48.788;9.772;2024-01-07T04:24:01;16.60;;;11.90;;
6205;SDS011;3136;48.788;9.772;2024-01-07T04:26:27;15.77;;;11.83;;
6205;SDS011;3136;48.788;9.772;2024-01-07T04:28:52;19.60;;;13.03;;
6205;SDS011;3136;48.788;9.772;2024-01-07T04:31:18;18.57;;;12.97;;
6205;SDS011;3136;48.788;9.772;2024-01-07T04:33:43;19.17;;;13.33;;
6205;SDS011;3136;48.788;9.772;2024-01-07T04:36:09;17.97;;;13.27;;
6205;SDS011;3136;48.788;9.772;2024-01-07T04:38:34;16.70;;;12.27;;
6205;SDS011;3136;48.788;9.772;2024-01-07T04:41:00;22.73;;;13.23;;
6205;SDS011;3136;48.788;9.772;2024-01-07T04:43:26;17.87;;;12.67;;
6205;SDS011;3136;48.788;9.772;2024-01-07T04:45:51;20.33;;;13.87;;
6205;SDS011;3136;48.788;9.772;2024-01-07T04:48:17;19.37;;;12.47;;
6205;SDS011;3136;48.788;9.772;2024-01-07T04:50:42;19.27;;;13.40;;
6205;SDS011;3136;48.788;9.772;2024-01-07T04:53:08;19.43;;;13.43;;
6205;SDS011;3136;48.788;9.772;2024-01-07T04:55:34;19.37;;;13.77;;
6205;SDS011;3136;48.788;9.772;2024-01-07T04:58:00;20.30;;;13.60;;
6205;SDS011;3136;48.788;9.772;2024-01-07T05:00:26;20.17;;;12.93;;
6205;SDS011;3136;48.788;9.772;2024-01-07T05:02:52;20.37;;;12.87;;
6205;SDS011;3136;48.788;9.772;2024-01-07T05:05:17;22.67;;;13.73;;
6205;SDS011;3136;48.788;9.772;2024-01-07T05:07:43;20.27;;;13.73;;
6205;SDS011;3136;48.788;9.772;2024-01-07T05:10:08;20.43;;;13.93;;
6205;SDS011;3136;48.788;9.772;2024-01-07T05:12:34;22.83;;;14.40;;
6205;SDS011;3136;48.788;9.772;2024-01-07T05:15:00;21.07;;;15.00;;
6205;SDS011;3136;48.788;9.772;2024-01-07T05:17:25;20.33;;;14.30;;
6205;SDS011;3136;48.788;9.772;2024-01-07T05:19:51;22.83;;;14.30;;
6205;SDS011;3136;48.788;9.772;2024-01-07T05:22:16;20.53;;;13.77;;
6205;SDS011;3136;48.788;9.772;2024-01-07T05:24:42;21.60;;;15.03;;
6205;SDS011;3136;48.788;9.772;2024-01-07T05:27:08;22.27;;;14.80;;
6205;SDS011;3136;48.788;9.772;2024-01-07T05:29:34;22.37;;;13.80;;
6205;SDS011;3136;48.788;9.772;2024-01-07T05:31:59;20.80;;;14.23;;
6205;SDS011;3136;48.788;9.772;2024-01-07T05:34:26;22.50;;;14.53;;
6205;SDS011;3136;48.788;9.772;2024-01-07T05:36:52;23.37;;;15.47;;
6205;SDS011;3136;48.788;9.772;2024-01-07T05:39:18;21.53;;;14.37;;
6205;SDS011;3136;48.788;9.772;2024-01-07T05:41:43;23.20;;;14.40;;
6205;SDS011;3136;48.788;9.772;2024-01-07T05:44:09;26.63;;;15.07;;
6205;SDS011;3136;48.788;9.772;2024-01-07T05:46:38;22.60;;;15.17;;
6205;SDS011;3136;48.788;9.772;2024-01-07T05:49:08;23.03;;;15.30;;
6205;SDS011;3136;48.788;9.772;2024-01-07T05:51:33;21.13;;;14.50;;
6205;SDS011;3136;48.788;9.772;2024-01-07T05:54:03;26.67;;;15.40;;
6205;SDS011;3136;48.788;9.772;2024-01-07T05:56:28;23.63;;;14.93;;
6205;SDS011;3136;48.788;9.772;2024-01-07T05:58:54;22.90;;;14.67;;
6205;SDS011;3136;48.788;9.772;2024-01-07T06:01:20;21.83;;;14.07;;
6205;SDS011;3136;48.788;9.772;2024-01-07T06:03:46;22.20;;;14.83;;
6205;SDS011;3136;48.788;9.772;2024-01-07T06:06:13;24.33;;;15.07;;
6205;SDS011;3136;48.788;9.772;2024-01-07T06:08:40;21.63;;;14.30;;
6205;SDS011;3136;48.788;9.772;2024-01-07T06:11:08;24.43;;;14.80;;
6205;SDS011;3136;48.788;9.772;2024-01-07T06:13:35;21.43;;;14.30;;
6205;SDS011;3136;48.788;9.772;2024-01-07T06:16:01;21.97;;;14.80;;
6205;SDS011;3136;48.788;9.772;2024-01-07T06:18:27;23.17;;;14.87;;
6205;SDS011;3136;48.788;9.772;2024-01-07T06:20:53;25.50;;;15.13;;
6205;SDS011;3136;48.788;9.772;2024-01-07T06:23:18;21.73;;;14.23;;
6205;SDS011;3136;48.788;9.772;2024-01-07T06:25:44;22.83;;;14.70;;
6205;SDS011;3136;48.788;9.772;2024-01-07T06:28:09;23.90;;;15.40;;
6205;SDS011;3136;48.788;9.772;2024-01-07T06:30:35;24.50;;;15.47;;
6205;SDS011;3136;48.788;9.772;2024-01-07T06:33:01;23.70;;;15.40;;
6205;SDS011;3136;48.788;9.772;2024-01-07T06:35:27;24.50;;;15.10;;
6205;SDS011;3136;48.788;9.772;2024-01-07T06:37:53;26.10;;;14.57;;
6205;SDS011;3136;48.788;9.772;2024-01-07T06:40:18;22.33;;;14.70;;
6205;SDS011;3136;48.788;9.772;2024-01-07T06:42:44;24.40;;;15.03;;
6205;SDS011;3136;48.788;9.772;2024-01-07T06:45:12;31.97;;;15.33;;
6205;SDS011;3136;48.788;9.772;2024-01-07T06:47:38;26.30;;;15.80;;
6205;SDS011;3136;48.788;9.772;2024-01-07T06:50:04;26.90;;;15.60;;
6205;SDS011;3136;48.788;9.772;2024-01-07T06:52:30;21.40;;;14.40;;
6205;SDS011;3136;48.788;9.772;2024-01-07T06:54:56;23.17;;;14.17;;
6205;SDS011;3136;48.788;9.772;2024-01-07T06:57:22;19.70;;;13.40;;
6205;SDS011;3136;48.788;9.772;2024-01-07T06:59:47;18.57;;;12.93;;
6205;SDS011;3136;48.788;9.772;2024-01-07T07:02:13;20.27;;;13.43;;
6205;SDS011;3136;48.788;9.772;2024-01-07T07:04:38;19.17;;;12.47;;
6205;SDS011;3136;48.788;9.772;2024-01-07T07:07:04;18.43;;;12.43;;
6205;SDS011;3136;48.788;9.772;2024-01-07T07:09:29;19.53;;;11.87;;
6205;SDS011;3136;48.788;9.772;2024-01-07T07:11:55;16.90;;;11.50;;
6205;SDS011;3136;48.788;9.772;2024-01-07T07:14:21;20.47;;;12.43;;
6205;SDS011;3136;48.788;9.772;2024-01-07T07:16:46;18.03;;;12.17;;
6205;SDS011;3136;48.788;9.772;2024-01-07T07:19:12;16.87;;;11.30;;
6205;SDS011;3136;48.788;9.772;2024-01-07T07:21:39;19.77;;;12.80;;
6205;SDS011;3136;48.788;9.772;2024-01-07T07:24:05;17.83;;;11.67;;
6205;SDS011;3136;48.788;9.772;2024-01-07T07:26:31;18.50;;;11.13;;
6205;SDS011;3136;48.788;9.772;2024-01-07T07:28:57;18.97;;;11.60;;
6205;SDS011;3136;48.788;9.772;2024-01-07T07:31:22;17.70;;;11.37;;
6205;SDS011;3136;48.788;9.772;2024-01-07T07:33:48;18.53;;;11.90;;
6205;SDS011;3136;48.788;9.772;2024-01-07T07:36:14;18.47;;;12.03;;
6205;SDS011;3136;48.788;9.772;2024-01-07T07:38:40;17.40;;;11.40;;
6205;SDS011;3136;48.788;9.772;2024-01-07T07:41:06;19.03;;;12.53;;
6205;SDS011;3136;48.788;9.772;2024-01-07T07:43:32;19.43;;;12.77;;
6205;SDS011;3136;48.788;9.772;2024-01-07T07:45:58;18.27;;;11.90;;
6205;SDS011;3136;48.788;9.772;2024-01-07T07:48:25;18.90;;;11.70;;
6205;SDS011;3136;48.788;9.772;2024-01-07T07:50:51;19.50;;;12.37;;
6205;SDS011;3136;48.788;9.772;2024-01-07T07:53:16;19.43;;;12.50;;
6205;SDS011;3136;48.788;9.772;2024-01-07T07:55:43;18.17;;;12.13;;
6205;SDS011;3136;48.788;9.772;2024-01-07T07:58:09;18.67;;;12.03;;
6205;SDS011;3136;48.788;9.772;2024-01-07T08:00:34;19.57;;;12.70;;
6205;SDS011;3136;48.788;9.772;2024-01-07T08:03:00;16.47;;;11.30;;
6205;SDS011;3136;48.788;9.772;2024-01-07T08:05:25;16.03;;;11.00;;
6205;SDS011;3136;48.788;9.772;2024-01-07T08:07:51;17.27;;;11.80;;
6205;SDS011;3136;48.788;9.772;2024-01-07T08:10:17;16.40;;;10.83;;
6205;SDS011;3136;48.788;9.772;2024-01-07T08:12:42;16.03;;;10.33;;
6205;SDS011;3136;48.788;9.772;2024-01-07T08:15:08;14.13;;;9.63;;
6205;SDS011;3136;48.788;9.772;2024-01-07T08:17:33;15.37;;;10.03;;
6205;SDS011;3136;48.788;9.772;2024-01-07T08:19:59;18.77;;;11.00;;
6205;SDS011;3136;48.788;9.772;2024-01-07T08:22:26;16.80;;;10.53;;
6205;SDS011;3136;48.788;9.772;2024-01-07T08:24:51;14.67;;;9.97;;
6205;SDS011;3136;48.788;9.772;2024-01-07T08:27:18;18.17;;;11.10;;
6205;SDS011;3136;48.788;9.772;2024-01-07T08:29:44;17.23;;;11.33;;
6205;SDS011;3136;48.788;9.772;2024-01-07T08:32:10;17.60;;;11.23;;
6205;SDS011;3136;48.788;9.772;2024-01-07T08:34:37;17.80;;;11.03;;
6205;SDS011;3136;48.788;9.772;2024-01-07T08:37:04;16.60;;;11.23;;
6205;SDS011;3136;48.788;9.772;2024-01-07T08:39:29;16.00;;;10.97;;
6205;SDS011;3136;48.788;9.772;2024-01-07T08:41:55;14.37;;;9.50;;
6205;SDS011;3136;48.788;9.772;2024-01-07T08:44:21;17.33;;;10.70;;
6205;SDS011;3136;48.788;9.772;2024-01-07T08:46:47;17.08;;;12.07;;
6205;SDS011;3136;48.788;9.772;2024-01-07T08:49:12;16.17;;;10.83;;
6205;SDS011;3136;48.788;9.772;2024-01-07T08:51:38;15.93;;;10.17;;
6205;SDS011;3136;48.788;9.772;2024-01-07T08:54:04;13.70;;;9.03;;
6205;SDS011;3136;48.788;9.772;2024-01-07T08:56:30;15.17;;;9.53;;
6205;SDS011;3136;48.788;9.772;2024-01-07T08:58:55;14.30;;;8.73;;
6205;SDS011;3136;48.788;9.772;2024-01-07T09:01:21;12.67;;;8.63;;
6205;SDS011;3136;48.788;9.772;2024-01-07T09:03:46;14.20;;;8.90;;
6205;SDS011;3136;48.788;9.772;2024-01-07T09:06:12;11.20;;;8.03;;
6205;SDS011;3136;48.788;9.772;2024-01-07T09:08:37;11.17;;;7.70;;
6205;SDS011;3136;48.788;9.772;2024-01-07T09:11:03;13.43;;;7.97;;
6205;SDS011;3136;48.788;9.772;2024-01-07T09:13:29;11.20;;;7.60;;
6205;SDS011;3136;48.788;9.772;2024-01-07T09:15:54;10.13;;;7.27;;
6205;SDS011;3136;48.788;9.772;2024-01-07T09:18:20;11.17;;;7.03;;
6205;SDS011;3136;48.788;9.772;2024-01-07T09:20:46;10.77;;;7.67;;
6205;SDS011;3136;48.788;9.772;2024-01-07T09:23:11;9.13;;;6.40;;
6205;SDS011;3136;48.788;9.772;2024-01-07T09:25:37;10.17;;;7.03;;
6205;SDS011;3136;48.788;9.772;2024-01-07T09:28:03;10.97;;;6.93;;
6205;SDS011;3136;48.788;9.772;2024-01-07T09:30:29;11.70;;;7.37;;
6205;SDS011;3136;48.788;9.772;2024-01-07T09:32:54;10.93;;;7.10;;
6205;SDS011;3136;48.788;9.772;2024-01-07T09:35:20;10.37;;;6.83;;
6205;SDS011;3136;48.788;9.772;2024-01-07T09:37:45;12.37;;;7.43;;
6205;SDS011;3136;48.788;9.772;2024-01-07T09:40:11;10.40;;;7.37;;
6205;SDS011;3136;48.788;9.772;2024-01-07T09:42:37;9.67;;;6.70;;
6205;SDS011;3136;48.788;9.772;2024-01-07T09:45:03;9.07;;;6.90;;
6205;SDS011;3136;48.788;9.772;2024-01-07T09:47:32;9.00;;;6.27;;
6205;SDS011;3136;48.788;9.772;2024-01-07T09:49:57;10.93;;;7.20;;
6205;SDS011;3136;48.788;9.772;2024-01-07T09:52:23;10.60;;;6.40;;
6205;SDS011;3136;48.788;9.772;2024-01-07T09:54:51;9.53;;;6.30;;
6205;SDS011;3136;48.788;9.772;2024-01-07T09:57:23;11.67;;;6.80;;
6205;SDS011;3136;48.788;9.772;2024-01-07T09:59:48;9.10;;;6.43;;
6205;SDS011;3136;48.788;9.772;2024-01-07T10:02:15;9.17;;;6.27;;
6205;SDS011;3136;48.788;9.772;2024-01-07T10:04:41;10.13;;;6.50;;
6205;SDS011;3136;48.788;9.772;2024-01-07T10:07:06;8.80;;;6.47;;
6205;SDS011;3136;48.788;9.772;2024-01-07T10:09:33;8.50;;;6.63;;
6205;SDS011;3136;48.788;9.772;2024-01-07T10:11:59;11.03;;;6.80;;
6205;SDS011;3136;48.788;9.772;2024-01-07T10:14:25;8.57;;;6.00;;
6205;SDS011;3136;48.788;9.772;2024-01-07T10:16:54;8.17;;;6.10;;
6205;SDS011;3136;48.788;9.772;2024-01-07T10:19:23;8.47;;;5.97;;
6205;SDS011;3136;48.788;9.772;2024-01-07T10:21:59;10.43;;;6.27;;
6205;SDS011;3136;48.788;9.772;2024-01-07T10:24:35;10.53;;;6.23;;
6205;SDS011;3136;48.788;9.772;2024-01-07T10:27:03;7.93;;;5.97;;
6205;SDS011;3136;48.788;9.772;2024-01-07T10:29:29;10.47;;;6.43;;
6205;SDS011;3136;48.788;9.772;2024-01-07T10:31:56;9.37;;;6.10;;
6205;SDS011;3136;48.788;9.772;2024-01-07T10:34:28;8.33;;;5.97;;
6205;SDS011;3136;48.788;9.772;2024-01-07T10:36:55;8.23;;;5.67;;
6205;SDS011;3136;48.788;9.772;2024-01-07T10:39:23;8.07;;;5.87;;
6205;SDS011;3136;48.788;9.772;2024-01-07T10:41:49;8.27;;;5.70;;
6205;SDS011;3136;48.788;9.772;2024-01-07T10:44:17;7.93;;;5.90;;
6205;SDS011;3136;48.788;9.772;2024-01-07T10:46:43;8.87;;;6.10;;
6205;SDS011;3136;48.788;9.772;2024-01-07T10:49:20;7.97;;;6.00;;
6205;SDS011;3136;48.788;9.772;2024-01-07T10:52:02;9.63;;;6.33;;
6205;SDS011;3136;48.788;9.772;2024-01-07T10:54:29;8.43;;;5.77;;
6205;SDS011;3136;48.788;9.772;2024-01-07T10:56:58;10.37;;;6.50;;
6205;SDS011;3136;48.788;9.772;2024-01-07T10:59:44;9.47;;;6.90;;
6205;SDS011;3136;48.788;9.772;2024-01-07T11:02:10;9.87;;;6.93;;
6205;SDS011;3136;48.788;9.772;2024-01-07T11:07:24;9.90;;;6.83;;
6205;SDS011;3136;48.788;9.772;2024-01-07T11:10:02;8.77;;;6.43;;
6205;SDS011;3136;48.788;9.772;2024-01-07T11:12:31;9.80;;;6.80;;
6205;SDS011;3136;48.788;9.772;2024-01-07T11:14:57;9.93;;;7.20;;
6205;SDS011;3136;48.788;9.772;2024-01-07T11:20:12;10.83;;;7.47;;
6205;SDS011;3136;48.788;9.772;2024-01-07T11:22:43;11.30;;;7.50;;
6205;SDS011;3136;48.788;9.772;2024-01-07T11:25:28;10.20;;;6.73;;
6205;SDS011;3136;48.788;9.772;2024-01-07T11:27:56;9.20;;;6.33;;
6205;SDS011;3136;48.788;9.772;2024-01-07T11:30:22;8.50;;;6.47;;
6205;SDS011;3136;48.788;9.772;2024-01-07T11:32:48;10.27;;;6.60;;
6205;SDS011;3136;48.788;9.772;2024-01-07T11:35:53;9.67;;;6.77;;
6205;SDS011;3136;48.788;9.772;2024-01-07T11:38:18;10.10;;;6.37;;
6205;SDS011;3136;48.788;9.772;2024-01-07T11:40:44;9.63;;;7.00;;
6205;SDS011;3136;48.788;9.772;2024-01-07T11:43:12;9.27;;;6.60;;
6205;SDS011;3136;48.788;9.772;2024-01-07T11:45:37;11.70;;;7.60;;
6205;SDS011;3136;48.788;9.772;2024-01-07T11:48:04;10.90;;;7.87;;
6205;SDS011;3136;48.788;9.772;2024-01-07T11:50:30;9.50;;;7.03;;
6205;SDS011;3136;48.788;9.772;2024-01-07T11:52:56;10.33;;;7.23;;
6205;SDS011;3136;48.788;9.772;2024-01-07T11:55:22;10.53;;;6.90;;
6205;SDS011;3136;48.788;9.772;2024-01-07T11:57:48;12.03;;;7.87;;
6205;SDS011;3136;48.788;9.772;2024-01-07T12:00:14;15.53;;;11.43;;
6205;SDS011;3136;48.788;9.772;2024-01-07T12:02:40;10.70;;;7.77;;
6205;SDS011;3136;48.788;9.772;2024-01-07T12:05:05;12.57;;;7.60;;
6205;SDS011;3136;48.788;9.772;2024-01-07T12:07:31;11.20;;;7.87;;
6205;SDS011;3136;48.788;9.772;2024-01-07T12:09:57;11.87;;;7.87;;
6205;SDS011;3136;48.788;9.772;2024-01-07T12:12:23;11.40;;;7.80;;
6205;SDS011;3136;48.788;9.772;2024-01-07T12:14:49;11.27;;;7.57;;
6205;SDS011;3136;48.788;9.772;2024-01-07T12:17:18;11.50;;;7.30;;
6205;SDS011;3136;48.788;9.772;2024-01-07T12:19:44;9.37;;;7.00;;
6205;SDS011;3136;48.788;9.772;2024-01-07T12:22:10;13.03;;;7.87;;
6205;SDS011;3136;48.788;9.772;2024-01-07T12:24:35;11.47;;;7.80;;
6205;SDS011;3136;48.788;9.772;2024-01-07T12:27:07;10.50;;;7.37;;
6205;SDS011;3136;48.788;9.772;2024-01-07T12:29:32;10.90;;;7.77;;
6205;SDS011;3136;48.788;9.772;2024-01-07T12:31:58;13.17;;;8.50;;
6205;SDS011;3136;48.788;9.772;2024-01-07T12:34:25;10.63;;;7.67;;
6205;SDS011;3136;48.788;9.772;2024-01-07T12:36:50;12.13;;;8.20;;
6205;SDS011;3136;48.788;9.772;2024-01-07T12:39:20;13.97;;;8.73;;
6205;SDS011;3136;48.788;9.772;2024-01-07T12:41:45;14.10;;;8.80;;
6205;SDS011;3136;48.788;9.772;2024-01-07T12:44:12;13.70;;;8.60;;
6205;SDS011;3136;48.788;9.772;2024-01-07T12:46:37;12.37;;;8.40;;
6205;SDS011;3136;48.788;9.772;2024-01-07T12:49:03;13.90;;;9.03;;
6205;SDS011;3136;48.788;9.772;2024-01-07T12:51:28;14.13;;;9.07;;
6205;SDS011;3136;48.788;9.772;2024-01-07T12:53:54;14.00;;;8.90;;
6205;SDS011;3136;48.788;9.772;2024-01-07T12:56:21;14.27;;;9.57;;
6205;SDS011;3136;48.788;9.772;2024-01-07T12:58:47;15.13;;;8.93;;
6205;SDS011;3136;48.788;9.772;2024-01-07T13:01:12;13.30;;;8.80;;
6205;SDS011;3136;48.788;9.772;2024-01-07T13:03:39;14.73;;;9.43;;
6205;SDS011;3136;48.788;9.772;2024-01-07T13:06:05;16.83;;;10.27;;
6205;SDS011;3136;48.788;9.772;2024-01-07T13:08:33;13.93;;;9.40;;
6205;SDS011;3136;48.788;9.772;2024-01-07T13:10:59;16.97;;;10.13;;
6205;SDS011;3136;48.788;9.772;2024-01-07T13:13:25;15.00;;;9.47;;
6205;SDS011;3136;48.788;9.772;2024-01-07T13:15:51;14.10;;;9.53;;
6205;SDS011;3136;48.788;9.772;2024-01-07T13:18:16;16.07;;;10.67;;
6205;SDS011;3136;48.788;9.772;2024-01-07T13:20:42;15.57;;;10.00;;
6205;SDS011;3136;48.788;9.772;2024-01-07T13:23:08;17.10;;;10.30;;
6205;SDS011;3136;48.788;9.772;2024-01-07T13:25:33;17.10;;;10.37;;
6205;SDS011;3136;48.788;9.772;2024-01-07T13:27:59;16.90;;;11.30;;
6205;SDS011;3136;48.788;9.772;2024-01-07T13:30:25;15.70;;;10.60;;
6205;SDS011;3136;48.788;9.772;2024-01-07T13:32:51;14.77;;;10.37;;
6205;SDS011;3136;48.788;9.772;2024-01-07T13:35:21;19.67;;;11.27;;
6205;SDS011;3136;48.788;9.772;2024-01-07T13:37:47;16.10;;;10.80;;
6205;SDS011;3136;48.788;9.772;2024-01-07T13:40:12;16.63;;;10.43;;
6205;SDS011;3136;48.788;9.772;2024-01-07T13:42:39;18.17;;;11.00;;
6205;SDS011;3136;48.788;9.772;2024-01-07T13:45:05;17.07;;;10.80;;
6205;SDS011;3136;48.788;9.772;2024-01-07T13:47:31;17.47;;;10.93;;
6205;SDS011;3136;48.788;9.772;2024-01-07T13:49:56;19.30;;;10.93;;
6205;SDS011;3136;48.788;9.772;2024-01-07T13:52:22;17.90;;;10.73;;
6205;SDS011;3136;48.788;9.772;2024-01-07T13:54:48;15.20;;;11.17;;
6205;SDS011;3136;48.788;9.772;2024-01-07T13:57:13;18.10;;;11.47;;
6205;SDS011;3136;48.788;9.772;2024-01-07T13:59:39;16.10;;;10.97;;
6205;SDS011;3136;48.788;9.772;2024-01-07T14:02:06;18.90;;;11.70;;
6205;SDS011;3136;48.788;9.772;2024-01-07T14:04:33;16.33;;;10.57;;
6205;SDS011;3136;48.788;9.772;2024-01-07T14:06:58;15.73;;;10.47;;
6205;SDS011;3136;48.788;9.772;2024-01-07T14:09:24;14.97;;;9.97;;
6205;SDS011;3136;48.788;9.772;2024-01-07T14:11:50;15.87;;;9.93;;
6205;SDS011;3136;48.788;9.772;2024-01-07T14:14:17;14.70;;;10.23;;
6205;SDS011;3136;48.788;9.772;2024-01-07T14:16:44;13.80;;;9.60;;
6205;SDS011;3136;48.788;9.772;2024-01-07T14:19:10;15.53;;;9.87;;
6205;SDS011;3136;48.788;9.772;2024-01-07T14:21:35;14.67;;;9.93;;
6205;SDS011;3136;48.788;9.772;2024-01-07T14:24:01;15.67;;;9.50;;
6205;SDS011;3136;48.788;9.772;2024-01-07T14:26:28;12.40;;;8.43;;
6205;SDS011;3136;48.788;9.772;2024-01-07T14:28:53;17.10;;;10.03;;
6205;SDS011;3136;48.788;9.772;2024-01-07T14:31:19;14.90;;;10.30;;
6205;SDS011;3136;48.788;9.772;2024-01-07T14:33:44;15.73;;;9.80;;
6205;SDS011;3136;48.788;9.772;2024-01-07T14:36:10;14.10;;;9.07;;
6205;SDS011;3136;48.788;9.772;2024-01-07T14:38:42;14.70;;;9.30;;
6205;SDS011;3136;48.788;9.772;2024-01-07T14:41:09;15.83;;;10.33;;
6205;SDS011;3136;48.788;9.772;2024-01-07T14:43:35;13.80;;;9.20;;
6205;SDS011;3136;48.788;9.772;2024-01-07T14:46:00;16.30;;;10.00;;
6205;SDS011;3136;48.788;9.772;2024-01-07T14:48:27;15.37;;;10.17;;
6205;SDS011;3136;48.788;9.772;2024-01-07T14:50:53;15.73;;;9.97;;
6205;SDS011;3136;48.788;9.772;2024-01-07T14:53:18;15.37;;;9.97;;